sensor_id;sensor_type;location;lat;lon;timestamp;P1;durP1;ratioP1;P2;durP2;ratioP2
76550;SDS011;65393;53.160;18.170;2023-01-08T00:01:11;42.00;;;20.00;;
76550;SDS011;65393;53.160;18.170;2023-01-08T00:03:47;43.10;;;18.90;;
76550;SDS011;65393;53.160;18.170;2023-01-08T00:06:15;46.60;;;20.50;;
76550;SDS011;65393;53.160;18.170;2023-01-08T00:08:44;45.40;;;20.10;;
76550;SDS011;65393;53.160;18.170;2023-01-08T00:11:11;40.90;;;19.10;;
76550;SDS011;65393;53.160;18.170;2023-01-08T00:13:39;44.90;;;19.20;;
76550;SDS011;65393;53.160;18.170;2023-01-08T00:16:07;46.10;;;19.20;;
76550;SDS011;65393;53.160;18.170;2023-01-08T00:18:37;39.20;;;17.60;;
76550;SDS011;65393;53.160;18.170;2023-01-08T00:21:05;42.30;;;19.60;;
76550;SDS011;65393;53.160;18.170;2023-01-08T00:23:32;42.60;;;19.70;;
76550;SDS011;65393;53.160;18.170;2023-01-08T00:26:00;43.80;;;19.40;;
76550;SDS011;65393;53.160;18.170;2023-01-08T00:28:28;41.10;;;20.00;;
76550;SDS011;65393;53.160;18.170;2023-01-08T00:30:55;51.20;;;21.00;;
76550;SDS011;65393;53.160;18.170;2023-01-08T00:33:22;42.20;;;20.30;;
76550;SDS011;65393;53.160;18.170;2023-01-08T00:35:48;45.90;;;20.30;;
76550;SDS011;65393;53.160;18.170;2023-01-08T00:38:15;44.90;;;20.50;;
76550;SDS011;65393;53.160;18.170;2023-01-08T00:40:42;48.70;;;21.00;;
76550;SDS011;65393;53.160;18.170;2023-01-08T00:43:09;46.60;;;20.60;;
76550;SDS011;65393;53.160;18.170;2023-01-08T00:45:35;41.60;;;20.90;;
76550;SDS011;65393;53.160;18.170;2023-01-08T00:48:02;42.70;;;19.60;;
76550;SDS011;65393;53.160;18.170;2023-01-08T00:50:29;43.60;;;19.90;;
76550;SDS011;65393;53.160;18.170;2023-01-08T00:52:56;41.00;;;19.00;;
76550;SDS011;65393;53.160;18.170;2023-01-08T00:55:23;44.50;;;20.60;;
76550;SDS011;65393;53.160;18.170;2023-01-08T00:57:49;49.10;;;20.70;;
76550;SDS011;65393;53.160;18.170;2023-01-08T01:00:16;42.30;;;16.70;;
76550;SDS011;65393;53.160;18.170;2023-01-08T01:02:43;44.80;;;19.60;;
76550;SDS011;65393;53.160;18.170;2023-01-08T01:05:11;43.30;;;19.60;;
76550;SDS011;65393;53.160;18.170;2023-01-08T01:07:40;45.70;;;20.40;;
76550;SDS011;65393;53.160;18.170;2023-01-08T01:10:09;45.40;;;20.50;;
76550;SDS011;65393;53.160;18.170;2023-01-08T01:12:37;43.00;;;19.30;;
76550;SDS011;65393;53.160;18.170;2023-01-08T01:15:05;45.50;;;18.80;;
76550;SDS011;65393;53.160;18.170;2023-01-08T01:17:33;40.80;;;18.70;;
76550;SDS011;65393;53.160;18.170;2023-01-08T01:20:00;44.40;;;20.70;;
76550;SDS011;65393;53.160;18.170;2023-01-08T01:22:27;47.70;;;20.50;;
76550;SDS011;65393;53.160;18.170;2023-01-08T01:24:54;43.70;;;19.70;;
76550;SDS011;65393;53.160;18.170;2023-01-08T01:27:21;41.20;;;19.20;;
76550;SDS011;65393;53.160;18.170;2023-01-08T01:29:47;40.30;;;19.10;;
76550;SDS011;65393;53.160;18.170;2023-01-08T01:32:14;40.90;;;19.50;;
76550;SDS011;65393;53.160;18.170;2023-01-08T01:34:41;42.80;;;19.50;;
76550;SDS011;65393;53.160;18.170;2023-01-08T01:37:08;42.10;;;19.60;;
76550;SDS011;65393;53.160;18.170;2023-01-08T01:39:38;41.70;;;19.10;;
76550;SDS011;65393;53.160;18.170;2023-01-08T01:42:06;39.00;;;18.90;;
76550;SDS011;65393;53.160;18.170;2023-01-08T01:44:55;41.40;;;19.50;;
76550;SDS011;65393;53.160;18.170;2023-01-08T01:47:37;41.00;;;19.20;;
76550;SDS011;65393;53.160;18.170;2023-01-08T01:52:39;41.90;;;20.10;;
76550;SDS011;65393;53.160;18.170;2023-01-08T01:55:12;41.30;;;19.30;;
76550;SDS011;65393;53.160;18.170;2023-01-08T01:57:41;41.90;;;19.80;;
76550;SDS011;65393;53.160;18.170;2023-01-08T02:00:14;39.80;;;18.40;;
76550;SDS011;65393;53.160;18.170;2023-01-08T02:02:42;44.80;;;21.30;;
76550;SDS011;65393;53.160;18.170;2023-01-08T02:05:09;37.30;;;18.80;;
76550;SDS011;65393;53.160;18.170;2023-01-08T02:07:39;41.80;;;19.00;;
76550;SDS011;65393;53.160;18.170;2023-01-08T02:10:27;43.30;;;19.20;;
76550;SDS011;65393;53.160;18.170;2023-01-08T02:13:05;43.60;;;19.40;;
76550;SDS011;65393;53.160;18.170;2023-01-08T02:15:58;46.40;;;21.60;;
76550;SDS011;65393;53.160;18.170;2023-01-08T02:24:15;36.80;;;17.80;;
76550;SDS011;65393;53.160;18.170;2023-01-08T02:26:49;36.80;;;17.30;;
76550;SDS011;65393;53.160;18.170;2023-01-08T02:29:21;39.50;;;19.10;;
76550;SDS011;65393;53.160;18.170;2023-01-08T02:31:51;40.70;;;18.90;;
76550;SDS011;65393;53.160;18.170;2023-01-08T02:34:18;39.50;;;19.20;;
76550;SDS011;65393;53.160;18.170;2023-01-08T02:36:49;42.90;;;19.20;;
76550;SDS011;65393;53.160;18.170;2023-01-08T02:44:41;34.00;;;17.60;;
76550;SDS011;65393;53.160;18.170;2023-01-08T02:47:26;42.40;;;21.50;;
76550;SDS011;65393;53.160;18.170;2023-01-08T02:50:02;35.80;;;17.50;;
76550;SDS011;65393;53.160;18.170;2023-01-08T02:52:37;40.40;;;18.40;;
76550;SDS011;65393;53.160;18.170;2023-01-08T02:55:10;41.70;;;19.60;;
76550;SDS011;65393;53.160;18.170;2023-01-08T02:57:38;44.00;;;20.00;;
76550;SDS011;65393;53.160;18.170;2023-01-08T03:00:05;40.50;;;17.80;;
76550;SDS011;65393;53.160;18.170;2023-01-08T03:02:33;38.00;;;18.20;;
76550;SDS011;65393;53.160;18.170;2023-01-08T03:05:04;36.60;;;18.80;;
76550;SDS011;65393;53.160;18.170;2023-01-08T03:07:38;42.70;;;19.70;;
76550;SDS011;65393;53.160;18.170;2023-01-08T03:10:06;41.60;;;18.40;;
76550;SDS011;65393;53.160;18.170;2023-01-08T03:15:14;38.80;;;19.70;;
76550;SDS011;65393;53.160;18.170;2023-01-08T03:17:48;44.30;;;20.70;;
76550;SDS011;65393;53.160;18.170;2023-01-08T03:20:20;42.10;;;19.20;;
76550;SDS011;65393;53.160;18.170;2023-01-08T03:22:49;41.70;;;18.60;;
76550;SDS011;65393;53.160;18.170;2023-01-08T03:28:00;43.60;;;19.50;;
76550;SDS011;65393;53.160;18.170;2023-01-08T03:30:29;45.60;;;20.20;;
76550;SDS011;65393;53.160;18.170;2023-01-08T03:32:57;43.70;;;20.50;;
76550;SDS011;65393;53.160;18.170;2023-01-08T03:35:26;42.70;;;21.00;;
76550;SDS011;65393;53.160;18.170;2023-01-08T03:38:10;46.70;;;21.80;;
76550;SDS011;65393;53.160;18.170;2023-01-08T03:40:43;43.10;;;20.20;;
76550;SDS011;65393;53.160;18.170;2023-01-08T03:43:13;42.10;;;20.60;;
76550;SDS011;65393;53.160;18.170;2023-01-08T03:45:41;41.80;;;19.00;;
76550;SDS011;65393;53.160;18.170;2023-01-08T03:48:14;51.00;;;22.00;;
76550;SDS011;65393;53.160;18.170;2023-01-08T03:50:43;43.70;;;20.60;;
76550;SDS011;65393;53.160;18.170;2023-01-08T03:53:10;46.00;;;22.00;;
76550;SDS011;65393;53.160;18.170;2023-01-08T03:55:37;45.00;;;20.90;;
76550;SDS011;65393;53.160;18.170;2023-01-08T03:58:04;49.10;;;21.90;;
76550;SDS011;65393;53.160;18.170;2023-01-08T04:00:31;45.80;;;22.00;;
76550;SDS011;65393;53.160;18.170;2023-01-08T04:02:57;45.40;;;21.50;;
76550;SDS011;65393;53.160;18.170;2023-01-08T04:05:24;49.10;;;22.50;;
76550;SDS011;65393;53.160;18.170;2023-01-08T04:07:53;49.20;;;22.70;;
76550;SDS011;65393;53.160;18.170;2023-01-08T04:10:25;50.60;;;24.00;;
76550;SDS011;65393;53.160;18.170;2023-01-08T04:12:51;48.90;;;21.50;;
76550;SDS011;65393;53.160;18.170;2023-01-08T04:15:18;48.00;;;20.80;;
76550;SDS011;65393;53.160;18.170;2023-01-08T04:17:45;47.40;;;22.20;;
76550;SDS011;65393;53.160;18.170;2023-01-08T04:20:11;49.00;;;22.00;;
76550;SDS011;65393;53.160;18.170;2023-01-08T04:22:38;45.00;;;21.60;;
76550;SDS011;65393;53.160;18.170;2023-01-08T04:25:05;43.30;;;20.70;;
76550;SDS011;65393;53.160;18.170;2023-01-08T04:27:32;51.50;;;22.40;;
76550;SDS011;65393;53.160;18.170;2023-01-08T04:29:59;48.00;;;23.60;;
76550;SDS011;65393;53.160;18.170;2023-01-08T04:32:25;47.70;;;22.10;;
76550;SDS011;65393;53.160;18.170;2023-01-08T04:34:52;50.30;;;22.80;;
76550;SDS011;65393;53.160;18.170;2023-01-08T04:37:19;50.70;;;23.60;;
76550;SDS011;65393;53.160;18.170;2023-01-08T04:39:45;50.80;;;23.40;;
76550;SDS011;65393;53.160;18.170;2023-01-08T04:42:12;51.90;;;23.50;;
76550;SDS011;65393;53.160;18.170;2023-01-08T04:44:39;48.80;;;23.50;;
76550;SDS011;65393;53.160;18.170;2023-01-08T04:47:05;54.30;;;26.00;;
76550;SDS011;65393;53.160;18.170;2023-01-08T04:49:32;51.80;;;21.30;;
76550;SDS011;65393;53.160;18.170;2023-01-08T04:51:59;44.40;;;21.70;;
76550;SDS011;65393;53.160;18.170;2023-01-08T04:54:25;49.20;;;21.70;;
76550;SDS011;65393;53.160;18.170;2023-01-08T04:56:52;47.50;;;22.60;;
76550;SDS011;65393;53.160;18.170;2023-01-08T04:59:19;46.70;;;20.70;;
76550;SDS011;65393;53.160;18.170;2023-01-08T05:01:45;53.70;;;24.00;;
76550;SDS011;65393;53.160;18.170;2023-01-08T05:04:12;47.70;;;22.00;;
76550;SDS011;65393;53.160;18.170;2023-01-08T05:06:39;51.70;;;21.60;;
76550;SDS011;65393;53.160;18.170;2023-01-08T05:09:05;49.90;;;24.40;;
76550;SDS011;65393;53.160;18.170;2023-01-08T05:11:32;47.40;;;21.00;;
76550;SDS011;65393;53.160;18.170;2023-01-08T05:14:00;46.40;;;21.70;;
76550;SDS011;65393;53.160;18.170;2023-01-08T05:16:27;46.70;;;20.70;;
76550;SDS011;65393;53.160;18.170;2023-01-08T05:18:54;50.90;;;21.70;;
76550;SDS011;65393;53.160;18.170;2023-01-08T05:21:20;46.00;;;20.80;;
76550;SDS011;65393;53.160;18.170;2023-01-08T05:23:47;48.10;;;20.60;;
76550;SDS011;65393;53.160;18.170;2023-01-08T05:26:14;44.10;;;21.20;;
76550;SDS011;65393;53.160;18.170;2023-01-08T05:28:42;43.50;;;20.80;;
76550;SDS011;65393;53.160;18.170;2023-01-08T05:31:09;46.70;;;21.10;;
76550;SDS011;65393;53.160;18.170;2023-01-08T05:33:37;44.90;;;20.10;;
76550;SDS011;65393;53.160;18.170;2023-01-08T05:36:05;46.10;;;20.30;;
76550;SDS011;65393;53.160;18.170;2023-01-08T05:38:33;44.50;;;19.70;;
76550;SDS011;65393;53.160;18.170;2023-01-08T05:41:00;47.50;;;21.20;;
76550;SDS011;65393;53.160;18.170;2023-01-08T05:43:26;49.30;;;21.80;;
76550;SDS011;65393;53.160;18.170;2023-01-08T05:45:56;44.60;;;21.10;;
76550;SDS011;65393;53.160;18.170;2023-01-08T05:48:25;48.70;;;22.80;;
76550;SDS011;65393;53.160;18.170;2023-01-08T05:50:52;42.20;;;19.80;;
76550;SDS011;65393;53.160;18.170;2023-01-08T05:53:19;45.90;;;21.50;;
76550;SDS011;65393;53.160;18.170;2023-01-08T05:55:46;44.30;;;20.70;;
76550;SDS011;65393;53.160;18.170;2023-01-08T05:58:12;43.40;;;20.90;;
76550;SDS011;65393;53.160;18.170;2023-01-08T06:00:39;40.60;;;19.70;;
76550;SDS011;65393;53.160;18.170;2023-01-08T06:03:06;41.80;;;19.70;;
76550;SDS011;65393;53.160;18.170;2023-01-08T06:05:33;42.10;;;19.90;;
76550;SDS011;65393;53.160;18.170;2023-01-08T06:07:59;48.10;;;20.50;;
76550;SDS011;65393;53.160;18.170;2023-01-08T06:10:26;43.80;;;20.60;;
76550;SDS011;65393;53.160;18.170;2023-01-08T06:12:54;43.40;;;19.90;;
76550;SDS011;65393;53.160;18.170;2023-01-08T06:15:21;43.50;;;21.40;;
76550;SDS011;65393;53.160;18.170;2023-01-08T06:17:48;42.30;;;20.60;;
76550;SDS011;65393;53.160;18.170;2023-01-08T06:20:14;42.20;;;19.20;;
76550;SDS011;65393;53.160;18.170;2023-01-08T06:22:41;46.10;;;20.80;;
76550;SDS011;65393;53.160;18.170;2023-01-08T06:25:08;42.20;;;18.80;;
76550;SDS011;65393;53.160;18.170;2023-01-08T06:27:35;39.80;;;18.70;;
76550;SDS011;65393;53.160;18.170;2023-01-08T06:30:02;40.70;;;20.70;;
76550;SDS011;65393;53.160;18.170;2023-01-08T06:32:29;40.30;;;20.30;;
76550;SDS011;65393;53.160;18.170;2023-01-08T06:34:55;47.70;;;20.90;;
76550;SDS011;65393;53.160;18.170;2023-01-08T06:37:22;42.30;;;20.00;;
76550;SDS011;65393;53.160;18.170;2023-01-08T06:39:49;42.20;;;18.90;;
76550;SDS011;65393;53.160;18.170;2023-01-08T06:42:15;41.50;;;19.70;;
76550;SDS011;65393;53.160;18.170;2023-01-08T06:44:42;40.20;;;19.30;;
76550;SDS011;65393;53.160;18.170;2023-01-08T06:47:09;42.00;;;20.10;;
76550;SDS011;65393;53.160;18.170;2023-01-08T06:49:35;42.80;;;19.70;;
76550;SDS011;65393;53.160;18.170;2023-01-08T06:52:02;41.50;;;19.80;;
76550;SDS011;65393;53.160;18.170;2023-01-08T06:54:29;40.70;;;20.00;;
76550;SDS011;65393;53.160;18.170;2023-01-08T06:56:55;41.60;;;19.40;;
76550;SDS011;65393;53.160;18.170;2023-01-08T06:59:22;44.50;;;19.10;;
76550;SDS011;65393;53.160;18.170;2023-01-08T07:01:49;40.40;;;18.60;;
76550;SDS011;65393;53.160;18.170;2023-01-08T07:04:16;39.40;;;21.40;;
76550;SDS011;65393;53.160;18.170;2023-01-08T07:06:44;47.90;;;23.00;;
76550;SDS011;65393;53.160;18.170;2023-01-08T07:09:11;48.60;;;28.20;;
76550;SDS011;65393;53.160;18.170;2023-01-08T07:11:40;40.00;;;19.70;;
76550;SDS011;65393;53.160;18.170;2023-01-08T07:14:07;42.10;;;20.00;;
76550;SDS011;65393;53.160;18.170;2023-01-08T07:16:34;38.80;;;17.90;;
76550;SDS011;65393;53.160;18.170;2023-01-08T07:19:01;38.90;;;17.90;;
76550;SDS011;65393;53.160;18.170;2023-01-08T07:21:28;36.70;;;16.70;;
76550;SDS011;65393;53.160;18.170;2023-01-08T07:23:54;38.80;;;17.40;;
76550;SDS011;65393;53.160;18.170;2023-01-08T07:26:21;37.30;;;18.00;;
76550;SDS011;65393;53.160;18.170;2023-01-08T07:28:48;39.90;;;18.60;;
76550;SDS011;65393;53.160;18.170;2023-01-08T07:31:14;35.50;;;17.60;;
76550;SDS011;65393;53.160;18.170;2023-01-08T07:33:41;37.30;;;18.50;;
76550;SDS011;65393;53.160;18.170;2023-01-08T07:36:08;40.90;;;19.00;;
76550;SDS011;65393;53.160;18.170;2023-01-08T07:38:34;36.50;;;18.50;;
76550;SDS011;65393;53.160;18.170;2023-01-08T07:41:01;33.30;;;16.50;;
76550;SDS011;65393;53.160;18.170;2023-01-08T07:43:28;36.40;;;18.00;;
76550;SDS011;65393;53.160;18.170;2023-01-08T07:45:55;39.40;;;17.10;;
76550;SDS011;65393;53.160;18.170;2023-01-08T07:48:23;38.40;;;17.90;;
76550;SDS011;65393;53.160;18.170;2023-01-08T07:50:49;36.20;;;17.10;;
76550;SDS011;65393;53.160;18.170;2023-01-08T07:53:16;37.70;;;18.00;;
76550;SDS011;65393;53.160;18.170;2023-01-08T07:55:43;37.20;;;18.20;;
76550;SDS011;65393;53.160;18.170;2023-01-08T07:58:10;37.90;;;17.90;;
76550;SDS011;65393;53.160;18.170;2023-01-08T08:00:38;38.90;;;17.50;;
76550;SDS011;65393;53.160;18.170;2023-01-08T08:03:06;35.80;;;16.70;;
76550;SDS011;65393;53.160;18.170;2023-01-08T08:05:36;34.50;;;16.10;;
76550;SDS011;65393;53.160;18.170;2023-01-08T08:08:07;36.10;;;17.10;;
76550;SDS011;65393;53.160;18.170;2023-01-08T08:13:01;34.80;;;16.90;;
76550;SDS011;65393;53.160;18.170;2023-01-08T08:15:28;41.10;;;18.00;;
76550;SDS011;65393;53.160;18.170;2023-01-08T08:17:55;38.50;;;18.00;;
76550;SDS011;65393;53.160;18.170;2023-01-08T08:20:22;39.40;;;17.90;;
76550;SDS011;65393;53.160;18.170;2023-01-08T08:22:48;36.10;;;17.90;;
76550;SDS011;65393;53.160;18.170;2023-01-08T08:25:15;33.90;;;17.10;;
76550;SDS011;65393;53.160;18.170;2023-01-08T08:27:43;34.70;;;17.10;;
76550;SDS011;65393;53.160;18.170;2023-01-08T08:30:10;34.40;;;17.60;;
76550;SDS011;65393;53.160;18.170;2023-01-08T08:32:38;32.70;;;16.30;;
76550;SDS011;65393;53.160;18.170;2023-01-08T08:35:05;33.40;;;16.00;;
76550;SDS011;65393;53.160;18.170;2023-01-08T08:37:32;39.60;;;17.40;;
76550;SDS011;65393;53.160;18.170;2023-01-08T08:39:59;36.20;;;16.60;;
76550;SDS011;65393;53.160;18.170;2023-01-08T08:42:25;29.40;;;12.60;;
76550;SDS011;65393;53.160;18.170;2023-01-08T08:44:52;40.20;;;18.10;;
76550;SDS011;65393;53.160;18.170;2023-01-08T08:47:19;39.30;;;18.40;;
76550;SDS011;65393;53.160;18.170;2023-01-08T08:49:45;40.20;;;19.10;;
76550;SDS011;65393;53.160;18.170;2023-01-08T08:52:12;31.50;;;14.30;;
76550;SDS011;65393;53.160;18.170;2023-01-08T08:54:39;25.40;;;12.40;;
76550;SDS011;65393;53.160;18.170;2023-01-08T08:57:07;38.00;;;17.60;;
76550;SDS011;65393;53.160;18.170;2023-01-08T08:59:34;33.20;;;15.20;;
76550;SDS011;65393;53.160;18.170;2023-01-08T09:02:01;43.50;;;19.50;;
76550;SDS011;65393;53.160;18.170;2023-01-08T09:04:32;38.70;;;18.70;;
76550;SDS011;65393;53.160;18.170;2023-01-08T09:06:59;35.80;;;17.00;;
76550;SDS011;65393;53.160;18.170;2023-01-08T09:09:26;39.20;;;18.60;;
76550;SDS011;65393;53.160;18.170;2023-01-08T09:11:53;41.10;;;19.10;;
76550;SDS011;65393;53.160;18.170;2023-01-08T09:14:20;38.30;;;20.20;;
76550;SDS011;65393;53.160;18.170;2023-01-08T09:16:47;39.10;;;18.40;;
76550;SDS011;65393;53.160;18.170;2023-01-08T09:19:14;40.20;;;20.60;;
76550;SDS011;65393;53.160;18.170;2023-01-08T09:21:40;44.30;;;20.80;;
76550;SDS011;65393;53.160;18.170;2023-01-08T09:24:07;46.60;;;21.00;;
76550;SDS011;65393;53.160;18.170;2023-01-08T09:26:34;42.00;;;19.70;;
76550;SDS011;65393;53.160;18.170;2023-01-08T09:29:01;34.80;;;15.10;;
76550;SDS011;65393;53.160;18.170;2023-01-08T09:31:28;37.70;;;18.50;;
76550;SDS011;65393;53.160;18.170;2023-01-08T09:33:55;40.60;;;18.00;;
76550;SDS011;65393;53.160;18.170;2023-01-08T09:36:22;45.10;;;19.90;;
76550;SDS011;65393;53.160;18.170;2023-01-08T09:38:48;34.80;;;16.10;;
76550;SDS011;65393;53.160;18.170;2023-01-08T09:43:47;40.60;;;18.50;;
76550;SDS011;65393;53.160;18.170;2023-01-08T09:46:18;40.90;;;19.00;;
76550;SDS011;65393;53.160;18.170;2023-01-08T09:48:50;42.30;;;19.80;;
76550;SDS011;65393;53.160;18.170;2023-01-08T09:51:18;37.20;;;19.70;;
76550;SDS011;65393;53.160;18.170;2023-01-08T09:53:49;35.40;;;18.40;;
76550;SDS011;65393;53.160;18.170;2023-01-08T09:56:21;40.20;;;19.80;;
76550;SDS011;65393;53.160;18.170;2023-01-08T09:58:48;40.50;;;19.10;;
76550;SDS011;65393;53.160;18.170;2023-01-08T10:01:25;30.60;;;14.70;;
76550;SDS011;65393;53.160;18.170;2023-01-08T10:07:07;35.00;;;16.20;;
76550;SDS011;65393;53.160;18.170;2023-01-08T10:12:03;37.70;;;18.80;;
76550;SDS011;65393;53.160;18.170;2023-01-08T10:14:35;45.60;;;19.70;;
76550;SDS011;65393;53.160;18.170;2023-01-08T10:17:07;39.10;;;19.00;;
76550;SDS011;65393;53.160;18.170;2023-01-08T10:19:46;39.30;;;19.20;;
76550;SDS011;65393;53.160;18.170;2023-01-08T10:22:14;41.00;;;20.20;;
76550;SDS011;65393;53.160;18.170;2023-01-08T10:24:42;30.10;;;16.00;;
76550;SDS011;65393;53.160;18.170;2023-01-08T10:27:14;41.10;;;18.50;;
76550;SDS011;65393;53.160;18.170;2023-01-08T10:29:46;39.90;;;19.70;;
76550;SDS011;65393;53.160;18.170;2023-01-08T10:32:16;37.80;;;18.40;;
76550;SDS011;65393;53.160;18.170;2023-01-08T10:34:51;39.80;;;19.40;;
76550;SDS011;65393;53.160;18.170;2023-01-08T10:39:48;43.70;;;19.10;;
76550;SDS011;65393;53.160;18.170;2023-01-08T10:42:17;42.00;;;19.40;;
76550;SDS011;65393;53.160;18.170;2023-01-08T10:44:58;39.90;;;19.50;;
76550;SDS011;65393;53.160;18.170;2023-01-08T10:47:29;36.60;;;17.90;;
76550;SDS011;65393;53.160;18.170;2023-01-08T10:49:59;41.10;;;19.80;;
76550;SDS011;65393;53.160;18.170;2023-01-08T10:52:30;41.80;;;20.40;;
76550;SDS011;65393;53.160;18.170;2023-01-08T10:55:12;38.50;;;19.60;;
76550;SDS011;65393;53.160;18.170;2023-01-08T10:58:39;41.90;;;19.90;;
76550;SDS011;65393;53.160;18.170;2023-01-08T11:00:41;45.70;;;21.60;;
76550;SDS011;65393;53.160;18.170;2023-01-08T11:03:30;42.10;;;19.20;;
76550;SDS011;65393;53.160;18.170;2023-01-08T11:05:58;37.60;;;18.60;;
76550;SDS011;65393;53.160;18.170;2023-01-08T11:08:25;38.50;;;18.90;;
76550;SDS011;65393;53.160;18.170;2023-01-08T11:10:55;40.10;;;20.00;;
76550;SDS011;65393;53.160;18.170;2023-01-08T11:13:26;35.80;;;19.30;;
76550;SDS011;65393;53.160;18.170;2023-01-08T11:16:04;34.40;;;18.10;;
76550;SDS011;65393;53.160;18.170;2023-01-08T11:18:35;36.20;;;19.30;;
76550;SDS011;65393;53.160;18.170;2023-01-08T11:21:19;41.90;;;20.50;;
76550;SDS011;65393;53.160;18.170;2023-01-08T11:26:41;37.00;;;17.70;;
76550;SDS011;65393;53.160;18.170;2023-01-08T11:29:13;36.30;;;19.20;;
76550;SDS011;65393;53.160;18.170;2023-01-08T11:31:58;39.40;;;19.80;;
76550;SDS011;65393;53.160;18.170;2023-01-08T11:37:13;38.20;;;16.00;;
76550;SDS011;65393;53.160;18.170;2023-01-08T11:39:45;39.90;;;18.40;;
76550;SDS011;65393;53.160;18.170;2023-01-08T11:56:19;39.60;;;19.70;;
76550;SDS011;65393;53.160;18.170;2023-01-08T11:59:52;55.40;;;24.40;;
76550;SDS011;65393;53.160;18.170;2023-01-08T12:15:19;39.70;;;19.00;;
76550;SDS011;65393;53.160;18.170;2023-01-08T12:20:46;36.50;;;19.00;;
76550;SDS011;65393;53.160;18.170;2023-01-08T12:26:18;43.80;;;20.70;;
76550;SDS011;65393;53.160;18.170;2023-01-08T12:31:37;41.40;;;19.90;;
76550;SDS011;65393;53.160;18.170;2023-01-08T12:34:14;38.60;;;19.20;;
76550;SDS011;65393;53.160;18.170;2023-01-08T12:36:48;39.00;;;19.10;;
76550;SDS011;65393;53.160;18.170;2023-01-08T12:39:24;44.20;;;20.60;;
76550;SDS011;65393;53.160;18.170;2023-01-08T12:41:56;42.60;;;20.00;;
76550;SDS011;65393;53.160;18.170;2023-01-08T12:44:29;38.90;;;17.90;;
76550;SDS011;65393;53.160;18.170;2023-01-08T12:46:57;43.90;;;20.30;;
76550;SDS011;65393;53.160;18.170;2023-01-08T12:49:30;37.50;;;19.10;;
76550;SDS011;65393;53.160;18.170;2023-01-08T12:52:15;36.20;;;20.10;;
76550;SDS011;65393;53.160;18.170;2023-01-08T13:03:00;32.90;;;16.50;;
76550;SDS011;65393;53.160;18.170;2023-01-08T13:08:00;33.40;;;16.90;;
76550;SDS011;65393;53.160;18.170;2023-01-08T13:12:57;37.70;;;18.40;;
76550;SDS011;65393;53.160;18.170;2023-01-08T13:15:28;37.40;;;18.70;;
76550;SDS011;65393;53.160;18.170;2023-01-08T13:17:59;38.50;;;17.50;;
76550;SDS011;65393;53.160;18.170;2023-01-08T13:20:32;37.40;;;19.90;;
76550;SDS011;65393;53.160;18.170;2023-01-08T13:23:00;33.20;;;15.90;;
76550;SDS011;65393;53.160;18.170;2023-01-08T13:25:38;42.50;;;19.70;;
76550;SDS011;65393;53.160;18.170;2023-01-08T13:33:48;42.50;;;18.50;;
76550;SDS011;65393;53.160;18.170;2023-01-08T13:36:21;40.90;;;19.80;;
76550;SDS011;65393;53.160;18.170;2023-01-08T13:41:31;33.30;;;16.60;;
76550;SDS011;65393;53.160;18.170;2023-01-08T13:44:13;41.50;;;21.00;;
76550;SDS011;65393;53.160;18.170;2023-01-08T13:46:52;41.50;;;21.00;;
76550;SDS011;65393;53.160;18.170;2023-01-08T13:49:30;39.50;;;20.30;;
76550;SDS011;65393;53.160;18.170;2023-01-08T13:52:30;45.10;;;21.90;;
76550;SDS011;65393;53.160;18.170;2023-01-08T13:55:00;39.30;;;19.10;;
76550;SDS011;65393;53.160;18.170;2023-01-08T13:57:38;37.30;;;18.90;;
76550;SDS011;65393;53.160;18.170;2023-01-08T14:00:16;34.60;;;18.10;;
76550;SDS011;65393;53.160;18.170;2023-01-08T14:03:25;39.30;;;17.80;;
76550;SDS011;65393;53.160;18.170;2023-01-08T14:06:04;38.50;;;18.10;;
76550;SDS011;65393;53.160;18.170;2023-01-08T14:08:32;39.50;;;18.60;;
76550;SDS011;65393;53.160;18.170;2023-01-08T14:11:00;39.00;;;19.40;;
76550;SDS011;65393;53.160;18.170;2023-01-08T14:13:30;38.40;;;18.60;;
76550;SDS011;65393;53.160;18.170;2023-01-08T14:16:03;42.30;;;20.60;;
76550;SDS011;65393;53.160;18.170;2023-01-08T14:18:31;42.00;;;21.00;;
76550;SDS011;65393;53.160;18.170;2023-01-08T14:20:58;40.40;;;20.30;;
76550;SDS011;65393;53.160;18.170;2023-01-08T14:23:25;46.50;;;21.10;;
76550;SDS011;65393;53.160;18.170;2023-01-08T14:25:56;37.60;;;17.20;;
76550;SDS011;65393;53.160;18.170;2023-01-08T14:28:27;43.40;;;21.10;;
76550;SDS011;65393;53.160;18.170;2023-01-08T14:30:55;35.10;;;18.60;;
76550;SDS011;65393;53.160;18.170;2023-01-08T14:33:23;39.50;;;19.70;;
76550;SDS011;65393;53.160;18.170;2023-01-08T14:36:01;43.00;;;20.10;;
76550;SDS011;65393;53.160;18.170;2023-01-08T14:38:31;44.50;;;22.00;;
76550;SDS011;65393;53.160;18.170;2023-01-08T14:40:59;40.40;;;17.70;;
76550;SDS011;65393;53.160;18.170;2023-01-08T14:43:34;40.00;;;17.00;;
76550;SDS011;65393;53.160;18.170;2023-01-08T14:46:10;45.80;;;22.70;;
76550;SDS011;65393;53.160;18.170;2023-01-08T14:48:49;36.60;;;18.40;;
76550;SDS011;65393;53.160;18.170;2023-01-08T14:51:20;40.70;;;20.40;;
76550;SDS011;65393;53.160;18.170;2023-01-08T14:53:50;38.30;;;19.30;;
76550;SDS011;65393;53.160;18.170;2023-01-08T14:56:29;36.70;;;17.90;;
76550;SDS011;65393;53.160;18.170;2023-01-08T14:58:58;37.70;;;18.60;;
76550;SDS011;65393;53.160;18.170;2023-01-08T15:01:26;35.70;;;18.90;;
76550;SDS011;65393;53.160;18.170;2023-01-08T15:06:43;36.80;;;19.00;;
76550;SDS011;65393;53.160;18.170;2023-01-08T15:09:30;41.70;;;20.70;;
76550;SDS011;65393;53.160;18.170;2023-01-08T15:12:03;38.40;;;19.20;;
76550;SDS011;65393;53.160;18.170;2023-01-08T15:14:32;38.50;;;18.10;;
76550;SDS011;65393;53.160;18.170;2023-01-08T15:17:09;41.80;;;20.70;;
76550;SDS011;65393;53.160;18.170;2023-01-08T15:19:44;44.00;;;21.50;;
76550;SDS011;65393;53.160;18.170;2023-01-08T15:22:17;38.60;;;18.30;;
76550;SDS011;65393;53.160;18.170;2023-01-08T15:27:23;41.90;;;20.50;;
76550;SDS011;65393;53.160;18.170;2023-01-08T15:29:51;37.70;;;19.00;;
76550;SDS011;65393;53.160;18.170;2023-01-08T15:32:29;40.50;;;19.20;;
76550;SDS011;65393;53.160;18.170;2023-01-08T15:35:15;36.90;;;17.00;;
76550;SDS011;65393;53.160;18.170;2023-01-08T15:37:43;39.00;;;17.80;;
76550;SDS011;65393;53.160;18.170;2023-01-08T15:40:11;44.80;;;20.80;;
76550;SDS011;65393;53.160;18.170;2023-01-08T15:42:38;47.10;;;21.20;;
76550;SDS011;65393;53.160;18.170;2023-01-08T15:45:27;45.30;;;18.20;;
76550;SDS011;65393;53.160;18.170;2023-01-08T15:47:57;50.60;;;22.30;;
76550;SDS011;65393;53.160;18.170;2023-01-08T15:50:24;53.50;;;22.80;;
76550;SDS011;65393;53.160;18.170;2023-01-08T15:52:53;45.60;;;21.80;;
76550;SDS011;65393;53.160;18.170;2023-01-08T15:55:23;48.00;;;22.50;;
76550;SDS011;65393;53.160;18.170;2023-01-08T15:57:50;50.10;;;21.50;;
76550;SDS011;65393;53.160;18.170;2023-01-08T16:00:18;58.70;;;24.10;;
76550;SDS011;65393;53.160;18.170;2023-01-08T16:02:46;51.40;;;22.20;;
76550;SDS011;65393;53.160;18.170;2023-01-08T16:05:15;60.40;;;22.60;;